sensor_id;sensor_type;location;lat;lon;timestamp;P1;durP1;ratioP1;P2;durP2;ratioP2
6626;SDS011;3349;49.830;8.748;2023-02-17T00:01:09;19.05;;;8.48;;
6626;SDS011;3349;49.830;8.748;2023-02-17T00:03:36;16.52;;;8.43;;
6626;SDS011;3349;49.830;8.748;2023-02-17T00:06:04;10.98;;;7.68;;
6626;SDS011;3349;49.830;8.748;2023-02-17T00:08:31;11.93;;;8.18;;
6626;SDS011;3349;49.830;8.748;2023-02-17T00:10:58;12.27;;;8.60;;
6626;SDS011;3349;49.830;8.748;2023-02-17T00:13:25;16.35;;;8.18;;
6626;SDS011;3349;49.830;8.748;2023-02-17T00:15:53;10.75;;;8.18;;
6626;SDS011;3349;49.830;8.748;2023-02-17T00:18:20;13.35;;;8.63;;
6626;SDS011;3349;49.830;8.748;2023-02-17T00:20:47;12.52;;;8.35;;
6626;SDS011;3349;49.830;8.748;2023-02-17T00:23:14;18.85;;;9.55;;
6626;SDS011;3349;49.830;8.748;2023-02-17T00:25:41;12.52;;;8.55;;
6626;SDS011;3349;49.830;8.748;2023-02-17T00:28:08;16.65;;;9.18;;
6626;SDS011;3349;49.830;8.748;2023-02-17T00:30:35;14.10;;;8.90;;
6626;SDS011;3349;49.830;8.748;2023-02-17T00:33:04;11.43;;;8.48;;
6626;SDS011;3349;49.830;8.748;2023-02-17T00:35:30;10.55;;;8.30;;
6626;SDS011;3349;49.830;8.748;2023-02-17T00:37:57;15.00;;;8.90;;
6626;SDS011;3349;49.830;8.748;2023-02-17T00:40:24;12.18;;;8.38;;
6626;SDS011;3349;49.830;8.748;2023-02-17T00:42:51;11.90;;;8.60;;
6626;SDS011;3349;49.830;8.748;2023-02-17T00:45:18;11.50;;;8.35;;
6626;SDS011;3349;49.830;8.748;2023-02-17T00:47:45;13.57;;;8.02;;
6626;SDS011;3349;49.830;8.748;2023-02-17T00:50:13;11.25;;;8.48;;
6626;SDS011;3349;49.830;8.748;2023-02-17T00:52:40;13.40;;;8.32;;
6626;SDS011;3349;49.830;8.748;2023-02-17T00:55:07;15.05;;;8.85;;
6626;SDS011;3349;49.830;8.748;2023-02-17T00:57:34;12.93;;;8.27;;
6626;SDS011;3349;49.830;8.748;2023-02-17T01:00:01;12.38;;;8.27;;
6626;SDS011;3349;49.830;8.748;2023-02-17T01:02:29;9.65;;;8.23;;
6626;SDS011;3349;49.830;8.748;2023-02-17T01:04:55;13.95;;;8.68;;
6626;SDS011;3349;49.830;8.748;2023-02-17T01:07:23;11.35;;;9.13;;
6626;SDS011;3349;49.830;8.748;2023-02-17T01:09:50;14.27;;;8.82;;
6626;SDS011;3349;49.830;8.748;2023-02-17T01:12:17;14.95;;;8.98;;
6626;SDS011;3349;49.830;8.748;2023-02-17T01:14:43;12.45;;;8.68;;
6626;SDS011;3349;49.830;8.748;2023-02-17T01:17:10;16.75;;;9.45;;
6626;SDS011;3349;49.830;8.748;2023-02-17T01:19:37;13.27;;;8.45;;
6626;SDS011;3349;49.830;8.748;2023-02-17T01:22:04;14.73;;;8.60;;
6626;SDS011;3349;49.830;8.748;2023-02-17T01:24:32;12.70;;;8.63;;
6626;SDS011;3349;49.830;8.748;2023-02-17T01:26:59;19.88;;;9.20;;
6626;SDS011;3349;49.830;8.748;2023-02-17T01:29:25;11.10;;;8.15;;
6626;SDS011;3349;49.830;8.748;2023-02-17T01:31:52;13.60;;;9.23;;
6626;SDS011;3349;49.830;8.748;2023-02-17T01:34:18;14.98;;;9.00;;
6626;SDS011;3349;49.830;8.748;2023-02-17T01:36:45;12.13;;;8.90;;
6626;SDS011;3349;49.830;8.748;2023-02-17T01:39:12;13.57;;;8.95;;
6626;SDS011;3349;49.830;8.748;2023-02-17T01:41:40;16.58;;;8.60;;
6626;SDS011;3349;49.830;8.748;2023-02-17T01:44:10;15.20;;;8.77;;
6626;SDS011;3349;49.830;8.748;2023-02-17T01:46:41;12.63;;;8.75;;
6626;SDS011;3349;49.830;8.748;2023-02-17T01:49:14;13.57;;;9.35;;
6626;SDS011;3349;49.830;8.748;2023-02-17T01:51:47;13.82;;;8.70;;
6626;SDS011;3349;49.830;8.748;2023-02-17T01:54:18;16.40;;;9.70;;
6626;SDS011;3349;49.830;8.748;2023-02-17T01:56:49;13.45;;;9.02;;
6626;SDS011;3349;49.830;8.748;2023-02-17T01:59:17;12.60;;;9.02;;
6626;SDS011;3349;49.830;8.748;2023-02-17T02:01:45;10.95;;;8.82;;
6626;SDS011;3349;49.830;8.748;2023-02-17T02:04:14;13.27;;;8.73;;
6626;SDS011;3349;49.830;8.748;2023-02-17T02:06:44;14.32;;;9.00;;
6626;SDS011;3349;49.830;8.748;2023-02-17T02:09:12;12.05;;;9.48;;
6626;SDS011;3349;49.830;8.748;2023-02-17T02:11:46;12.70;;;8.95;;
6626;SDS011;3349;49.830;8.748;2023-02-17T02:14:15;13.88;;;8.60;;
6626;SDS011;3349;49.830;8.748;2023-02-17T02:16:46;15.00;;;8.68;;
6626;SDS011;3349;49.830;8.748;2023-02-17T02:19:29;16.35;;;9.68;;
6626;SDS011;3349;49.830;8.748;2023-02-17T02:22:18;11.45;;;9.00;;
6626;SDS011;3349;49.830;8.748;2023-02-17T02:25:03;12.40;;;9.02;;
6626;SDS011;3349;49.830;8.748;2023-02-17T02:27:47;12.95;;;8.98;;
6626;SDS011;3349;49.830;8.748;2023-02-17T02:30:24;15.27;;;9.05;;
6626;SDS011;3349;49.830;8.748;2023-02-17T02:33:12;12.68;;;8.80;;
6626;SDS011;3349;49.830;8.748;2023-02-17T02:35:50;12.25;;;8.65;;
6626;SDS011;3349;49.830;8.748;2023-02-17T02:38:24;13.77;;;9.43;;
6626;SDS011;3349;49.830;8.748;2023-02-17T02:40:59;12.18;;;8.45;;
6626;SDS011;3349;49.830;8.748;2023-02-17T02:43:30;12.60;;;8.32;;
6626;SDS011;3349;49.830;8.748;2023-02-17T02:45:58;12.68;;;7.93;;
6626;SDS011;3349;49.830;8.748;2023-02-17T02:48:26;11.77;;;8.57;;
6626;SDS011;3349;49.830;8.748;2023-02-17T02:50:55;13.93;;;8.98;;
6626;SDS011;3349;49.830;8.748;2023-02-17T02:56:25;12.60;;;8.70;;
6626;SDS011;3349;49.830;8.748;2023-02-17T02:58:59;12.32;;;9.10;;
6626;SDS011;3349;49.830;8.748;2023-02-17T03:01:39;17.38;;;8.82;;
6626;SDS011;3349;49.830;8.748;2023-02-17T03:04:16;14.73;;;9.10;;
6626;SDS011;3349;49.830;8.748;2023-02-17T03:06:51;11.85;;;8.85;;
6626;SDS011;3349;49.830;8.748;2023-02-17T03:09:23;12.52;;;8.85;;
6626;SDS011;3349;49.830;8.748;2023-02-17T03:11:52;13.45;;;8.95;;
6626;SDS011;3349;49.830;8.748;2023-02-17T03:14:21;14.15;;;8.50;;
6626;SDS011;3349;49.830;8.748;2023-02-17T03:16:49;13.52;;;9.10;;
6626;SDS011;3349;49.830;8.748;2023-02-17T03:19:19;14.45;;;9.23;;
6626;SDS011;3349;49.830;8.748;2023-02-17T03:21:49;16.88;;;9.43;;
6626;SDS011;3349;49.830;8.748;2023-02-17T03:24:19;12.90;;;8.73;;
6626;SDS011;3349;49.830;8.748;2023-02-17T03:26:46;12.27;;;8.52;;
6626;SDS011;3349;49.830;8.748;2023-02-17T03:29:12;11.70;;;8.25;;
6626;SDS011;3349;49.830;8.748;2023-02-17T03:31:39;11.40;;;8.45;;
6626;SDS011;3349;49.830;8.748;2023-02-17T03:34:06;12.77;;;8.55;;
6626;SDS011;3349;49.830;8.748;2023-02-17T03:36:34;13.05;;;8.70;;
6626;SDS011;3349;49.830;8.748;2023-02-17T03:39:01;13.75;;;9.13;;
6626;SDS011;3349;49.830;8.748;2023-02-17T03:41:28;9.68;;;7.70;;
6626;SDS011;3349;49.830;8.748;2023-02-17T03:43:55;11.43;;;8.38;;
6626;SDS011;3349;49.830;8.748;2023-02-17T03:46:21;11.57;;;8.15;;
6626;SDS011;3349;49.830;8.748;2023-02-17T03:48:48;11.50;;;7.47;;
6626;SDS011;3349;49.830;8.748;2023-02-17T03:51:15;12.43;;;7.55;;
6626;SDS011;3349;49.830;8.748;2023-02-17T03:53:45;9.68;;;7.07;;
6626;SDS011;3349;49.830;8.748;2023-02-17T03:56:12;15.32;;;7.35;;
6626;SDS011;3349;49.830;8.748;2023-02-17T03:58:39;11.27;;;7.43;;
6626;SDS011;3349;49.830;8.748;2023-02-17T04:01:07;10.10;;;7.32;;
6626;SDS011;3349;49.830;8.748;2023-02-17T04:03:35;10.45;;;6.78;;
6626;SDS011;3349;49.830;8.748;2023-02-17T04:06:02;11.07;;;7.07;;
6626;SDS011;3349;49.830;8.748;2023-02-17T04:08:29;12.43;;;7.28;;
6626;SDS011;3349;49.830;8.748;2023-02-17T04:10:58;9.43;;;6.57;;
6626;SDS011;3349;49.830;8.748;2023-02-17T04:13:27;9.25;;;6.90;;
6626;SDS011;3349;49.830;8.748;2023-02-17T04:15:54;8.98;;;6.22;;
6626;SDS011;3349;49.830;8.748;2023-02-17T04:18:21;8.32;;;6.70;;
6626;SDS011;3349;49.830;8.748;2023-02-17T04:20:48;8.85;;;6.25;;
6626;SDS011;3349;49.830;8.748;2023-02-17T04:23:16;9.45;;;6.55;;
6626;SDS011;3349;49.830;8.748;2023-02-17T04:25:43;9.15;;;6.18;;
6626;SDS011;3349;49.830;8.748;2023-02-17T04:28:12;11.13;;;6.50;;
6626;SDS011;3349;49.830;8.748;2023-02-17T04:30:41;9.32;;;6.28;;
6626;SDS011;3349;49.830;8.748;2023-02-17T04:33:08;9.15;;;6.05;;
6626;SDS011;3349;49.830;8.748;2023-02-17T04:35:35;7.55;;;6.25;;
6626;SDS011;3349;49.830;8.748;2023-02-17T04:38:02;9.75;;;6.40;;
6626;SDS011;3349;49.830;8.748;2023-02-17T04:40:29;8.52;;;6.25;;
6626;SDS011;3349;49.830;8.748;2023-02-17T04:42:56;10.45;;;5.95;;
6626;SDS011;3349;49.830;8.748;2023-02-17T04:45:24;8.15;;;6.75;;
6626;SDS011;3349;49.830;8.748;2023-02-17T04:47:51;7.95;;;6.20;;
6626;SDS011;3349;49.830;8.748;2023-02-17T04:50:17;9.15;;;6.18;;
6626;SDS011;3349;49.830;8.748;2023-02-17T04:52:44;11.23;;;6.18;;
6626;SDS011;3349;49.830;8.748;2023-02-17T04:55:11;8.30;;;5.45;;
6626;SDS011;3349;49.830;8.748;2023-02-17T04:57:37;6.82;;;5.60;;
6626;SDS011;3349;49.830;8.748;2023-02-17T05:00:04;7.20;;;5.68;;
6626;SDS011;3349;49.830;8.748;2023-02-17T05:02:33;8.45;;;5.63;;
6626;SDS011;3349;49.830;8.748;2023-02-17T05:05:00;10.57;;;5.65;;
6626;SDS011;3349;49.830;8.748;2023-02-17T05:07:27;12.60;;;7.75;;
6626;SDS011;3349;49.830;8.748;2023-02-17T05:09:53;7.72;;;5.63;;
6626;SDS011;3349;49.830;8.748;2023-02-17T05:12:20;6.53;;;5.28;;
6626;SDS011;3349;49.830;8.748;2023-02-17T05:14:47;7.47;;;5.03;;
6626;SDS011;3349;49.830;8.748;2023-02-17T05:17:14;6.25;;;5.30;;
6626;SDS011;3349;49.830;8.748;2023-02-17T05:19:42;7.80;;;5.68;;
6626;SDS011;3349;49.830;8.748;2023-02-17T05:22:08;7.68;;;5.68;;
6626;SDS011;3349;49.830;8.748;2023-02-17T05:24:35;7.65;;;5.18;;
6626;SDS011;3349;49.830;8.748;2023-02-17T05:27:02;7.95;;;4.82;;
6626;SDS011;3349;49.830;8.748;2023-02-17T05:29:29;7.25;;;5.30;;
6626;SDS011;3349;49.830;8.748;2023-02-17T05:31:55;6.47;;;5.10;;
6626;SDS011;3349;49.830;8.748;2023-02-17T05:34:22;9.18;;;5.22;;
6626;SDS011;3349;49.830;8.748;2023-02-17T05:36:50;6.78;;;4.85;;
6626;SDS011;3349;49.830;8.748;2023-02-17T05:39:17;6.25;;;4.80;;
6626;SDS011;3349;49.830;8.748;2023-02-17T05:41:43;5.63;;;4.65;;
6626;SDS011;3349;49.830;8.748;2023-02-17T05:44:10;6.93;;;4.78;;
6626;SDS011;3349;49.830;8.748;2023-02-17T05:46:37;9.90;;;5.00;;
6626;SDS011;3349;49.830;8.748;2023-02-17T05:49:03;5.85;;;4.80;;
6626;SDS011;3349;49.830;8.748;2023-02-17T05:51:30;6.88;;;4.97;;
6626;SDS011;3349;49.830;8.748;2023-02-17T05:53:58;6.20;;;4.72;;
6626;SDS011;3349;49.830;8.748;2023-02-17T05:56:25;4.78;;;4.25;;
6626;SDS011;3349;49.830;8.748;2023-02-17T05:58:52;6.70;;;4.78;;
6626;SDS011;3349;49.830;8.748;2023-02-17T06:01:18;7.15;;;4.93;;
6626;SDS011;3349;49.830;8.748;2023-02-17T06:03:45;6.22;;;5.05;;
6626;SDS011;3349;49.830;8.748;2023-02-17T06:06:12;6.18;;;4.85;;
6626;SDS011;3349;49.830;8.748;2023-02-17T06:08:38;6.65;;;4.53;;
6626;SDS011;3349;49.830;8.748;2023-02-17T06:11:07;6.80;;;4.80;;
6626;SDS011;3349;49.830;8.748;2023-02-17T06:13:33;5.00;;;4.22;;
6626;SDS011;3349;49.830;8.748;2023-02-17T06:16:00;6.05;;;5.10;;
6626;SDS011;3349;49.830;8.748;2023-02-17T06:18:27;7.45;;;5.25;;
6626;SDS011;3349;49.830;8.748;2023-02-17T06:20:54;7.45;;;4.78;;
6626;SDS011;3349;49.830;8.748;2023-02-17T06:23:21;6.75;;;4.22;;
6626;SDS011;3349;49.830;8.748;2023-02-17T06:25:48;5.55;;;4.53;;
6626;SDS011;3349;49.830;8.748;2023-02-17T06:28:16;5.90;;;4.38;;
6626;SDS011;3349;49.830;8.748;2023-02-17T06:30:42;6.18;;;4.55;;
6626;SDS011;3349;49.830;8.748;2023-02-17T06:33:09;5.80;;;5.00;;
6626;SDS011;3349;49.830;8.748;2023-02-17T06:35:36;7.22;;;4.97;;
6626;SDS011;3349;49.830;8.748;2023-02-17T06:38:03;6.05;;;4.82;;
6626;SDS011;3349;49.830;8.748;2023-02-17T06:40:29;7.45;;;5.07;;
6626;SDS011;3349;49.830;8.748;2023-02-17T06:42:56;7.93;;;5.20;;
6626;SDS011;3349;49.830;8.748;2023-02-17T06:45:24;5.70;;;4.90;;
6626;SDS011;3349;49.830;8.748;2023-02-17T06:47:51;6.93;;;5.47;;
6626;SDS011;3349;49.830;8.748;2023-02-17T06:50:18;6.65;;;5.45;;
6626;SDS011;3349;49.830;8.748;2023-02-17T06:52:45;8.10;;;5.40;;
6626;SDS011;3349;49.830;8.748;2023-02-17T06:55:12;6.80;;;5.50;;
6626;SDS011;3349;49.830;8.748;2023-02-17T06:57:38;7.63;;;6.22;;
6626;SDS011;3349;49.830;8.748;2023-02-17T07:00:06;7.25;;;5.47;;
6626;SDS011;3349;49.830;8.748;2023-02-17T07:02:37;9.50;;;5.88;;
6626;SDS011;3349;49.830;8.748;2023-02-17T07:05:04;5.90;;;5.30;;
6626;SDS011;3349;49.830;8.748;2023-02-17T07:07:31;9.30;;;6.20;;
6626;SDS011;3349;49.830;8.748;2023-02-17T07:09:58;6.90;;;5.50;;
6626;SDS011;3349;49.830;8.748;2023-02-17T07:12:25;7.10;;;6.18;;
6626;SDS011;3349;49.830;8.748;2023-02-17T07:14:52;6.35;;;5.50;;
6626;SDS011;3349;49.830;8.748;2023-02-17T07:17:19;7.35;;;6.03;;
6626;SDS011;3349;49.830;8.748;2023-02-17T07:19:47;10.45;;;6.88;;
6626;SDS011;3349;49.830;8.748;2023-02-17T07:22:14;8.75;;;6.50;;
6626;SDS011;3349;49.830;8.748;2023-02-17T07:24:40;8.18;;;6.60;;
6626;SDS011;3349;49.830;8.748;2023-02-17T07:27:07;6.72;;;6.05;;
6626;SDS011;3349;49.830;8.748;2023-02-17T07:29:34;8.60;;;6.47;;
6626;SDS011;3349;49.830;8.748;2023-02-17T07:32:00;8.82;;;6.25;;
6626;SDS011;3349;49.830;8.748;2023-02-17T07:34:27;9.05;;;6.03;;
6626;SDS011;3349;49.830;8.748;2023-02-17T07:36:55;8.07;;;5.90;;
6626;SDS011;3349;49.830;8.748;2023-02-17T07:39:22;10.18;;;6.43;;
6626;SDS011;3349;49.830;8.748;2023-02-17T07:41:48;6.03;;;5.43;;
6626;SDS011;3349;49.830;8.748;2023-02-17T07:44:15;7.95;;;6.70;;
6626;SDS011;3349;49.830;8.748;2023-02-17T07:46:42;8.18;;;6.80;;
6626;SDS011;3349;49.830;8.748;2023-02-17T07:49:08;7.13;;;5.78;;
6626;SDS011;3349;49.830;8.748;2023-02-17T07:51:36;7.95;;;6.25;;
6626;SDS011;3349;49.830;8.748;2023-02-17T07:54:04;8.35;;;6.20;;
6626;SDS011;3349;49.830;8.748;2023-02-17T07:56:31;5.50;;;4.80;;
6626;SDS011;3349;49.830;8.748;2023-02-17T07:58:58;7.13;;;5.15;;
6626;SDS011;3349;49.830;8.748;2023-02-17T08:01:24;6.05;;;5.45;;
6626;SDS011;3349;49.830;8.748;2023-02-17T08:03:51;7.55;;;5.10;;
6626;SDS011;3349;49.830;8.748;2023-02-17T08:06:19;10.73;;;6.13;;
6626;SDS011;3349;49.830;8.748;2023-02-17T08:08:47;5.63;;;5.03;;
6626;SDS011;3349;49.830;8.748;2023-02-17T08:11:33;4.60;;;4.03;;
6626;SDS011;3349;49.830;8.748;2023-02-17T08:14:19;4.28;;;3.88;;
6626;SDS011;3349;49.830;8.748;2023-02-17T08:16:46;4.40;;;4.00;;
6626;SDS011;3349;49.830;8.748;2023-02-17T08:19:13;4.57;;;4.05;;
6626;SDS011;3349;49.830;8.748;2023-02-17T08:21:40;5.68;;;4.18;;
6626;SDS011;3349;49.830;8.748;2023-02-17T08:24:07;5.22;;;4.13;;
6626;SDS011;3349;49.830;8.748;2023-02-17T08:26:35;5.25;;;4.43;;
6626;SDS011;3349;49.830;8.748;2023-02-17T08:29:02;5.63;;;4.32;;
6626;SDS011;3349;49.830;8.748;2023-02-17T08:31:30;5.40;;;4.70;;
6626;SDS011;3349;49.830;8.748;2023-02-17T08:33:58;6.97;;;4.95;;
6626;SDS011;3349;49.830;8.748;2023-02-17T08:36:26;5.82;;;5.07;;
6626;SDS011;3349;49.830;8.748;2023-02-17T08:38:54;6.53;;;4.45;;
6626;SDS011;3349;49.830;8.748;2023-02-17T08:41:22;4.55;;;4.00;;
6626;SDS011;3349;49.830;8.748;2023-02-17T08:43:51;4.15;;;3.50;;
6626;SDS011;3349;49.830;8.748;2023-02-17T08:46:18;4.15;;;3.75;;
6626;SDS011;3349;49.830;8.748;2023-02-17T08:48:45;4.57;;;4.18;;
6626;SDS011;3349;49.830;8.748;2023-02-17T08:51:14;4.95;;;4.00;;
6626;SDS011;3349;49.830;8.748;2023-02-17T08:53:42;4.82;;;4.30;;
6626;SDS011;3349;49.830;8.748;2023-02-17T08:56:09;5.07;;;4.57;;
6626;SDS011;3349;49.830;8.748;2023-02-17T08:58:36;6.97;;;4.57;;
6626;SDS011;3349;49.830;8.748;2023-02-17T09:01:04;4.90;;;4.30;;
6626;SDS011;3349;49.830;8.748;2023-02-17T09:03:32;6.13;;;5.00;;
6626;SDS011;3349;49.830;8.748;2023-02-17T09:05:59;5.10;;;4.60;;
6626;SDS011;3349;49.830;8.748;2023-02-17T09:08:26;4.95;;;4.45;;
6626;SDS011;3349;49.830;8.748;2023-02-17T09:10:53;8.05;;;4.80;;
6626;SDS011;3349;49.830;8.748;2023-02-17T09:13:19;6.63;;;4.25;;
6626;SDS011;3349;49.830;8.748;2023-02-17T09:15:46;9.13;;;7.22;;
6626;SDS011;3349;49.830;8.748;2023-02-17T09:18:14;8.18;;;6.18;;
6626;SDS011;3349;49.830;8.748;2023-02-17T09:20:41;5.55;;;4.70;;
6626;SDS011;3349;49.830;8.748;2023-02-17T09:23:08;10.65;;;8.35;;
6626;SDS011;3349;49.830;8.748;2023-02-17T09:25:35;10.63;;;7.20;;
6626;SDS011;3349;49.830;8.748;2023-02-17T09:28:02;9.30;;;7.95;;
6626;SDS011;3349;49.830;8.748;2023-02-17T09:30:29;8.85;;;5.75;;
6626;SDS011;3349;49.830;8.748;2023-02-17T09:32:56;7.03;;;5.25;;
6626;SDS011;3349;49.830;8.748;2023-02-17T09:35:24;5.30;;;4.53;;
6626;SDS011;3349;49.830;8.748;2023-02-17T09:37:51;6.70;;;5.07;;
6626;SDS011;3349;49.830;8.748;2023-02-17T09:40:20;9.02;;;5.15;;
6626;SDS011;3349;49.830;8.748;2023-02-17T09:42:49;6.35;;;5.07;;
6626;SDS011;3349;49.830;8.748;2023-02-17T09:45:17;5.97;;;5.30;;
6626;SDS011;3349;49.830;8.748;2023-02-17T09:47:48;9.27;;;5.25;;
6626;SDS011;3349;49.830;8.748;2023-02-17T09:50:18;6.20;;;5.60;;
6626;SDS011;3349;49.830;8.748;2023-02-17T09:52:50;6.97;;;5.53;;
6626;SDS011;3349;49.830;8.748;2023-02-17T09:55:22;7.32;;;5.72;;
6626;SDS011;3349;49.830;8.748;2023-02-17T09:57:54;7.72;;;6.05;;
6626;SDS011;3349;49.830;8.748;2023-02-17T10:00:23;8.77;;;7.13;;
6626;SDS011;3349;49.830;8.748;2023-02-17T10:02:54;8.48;;;6.35;;
6626;SDS011;3349;49.830;8.748;2023-02-17T10:05:25;6.95;;;5.70;;
6626;SDS011;3349;49.830;8.748;2023-02-17T10:08:01;6.18;;;5.45;;
6626;SDS011;3349;49.830;8.748;2023-02-17T10:10:34;5.43;;;4.93;;
6626;SDS011;3349;49.830;8.748;2023-02-17T10:13:05;6.43;;;5.82;;
6626;SDS011;3349;49.830;8.748;2023-02-17T10:15:34;8.88;;;6.43;;
6626;SDS011;3349;49.830;8.748;2023-02-17T10:18:07;7.75;;;5.07;;
6626;SDS011;3349;49.830;8.748;2023-02-17T10:20:40;6.53;;;5.93;;
6626;SDS011;3349;49.830;8.748;2023-02-17T10:23:12;6.43;;;5.68;;
6626;SDS011;3349;49.830;8.748;2023-02-17T10:25:56;8.40;;;5.97;;
6626;SDS011;3349;49.830;8.748;2023-02-17T10:31:24;8.02;;;6.63;;
6626;SDS011;3349;49.830;8.748;2023-02-17T10:34:00;6.18;;;5.57;;
6626;SDS011;3349;49.830;8.748;2023-02-17T10:36:31;7.80;;;5.47;;
6626;SDS011;3349;49.830;8.748;2023-02-17T10:39:10;5.43;;;4.93;;
6626;SDS011;3349;49.830;8.748;2023-02-17T10:41:39;6.85;;;5.55;;
6626;SDS011;3349;49.830;8.748;2023-02-17T10:44:11;5.38;;;4.82;;
6626;SDS011;3349;49.830;8.748;2023-02-17T10:46:41;7.03;;;5.43;;
6626;SDS011;3349;49.830;8.748;2023-02-17T10:49:13;5.68;;;5.00;;
6626;SDS011;3349;49.830;8.748;2023-02-17T10:51:45;6.95;;;5.13;;
6626;SDS011;3349;49.830;8.748;2023-02-17T10:54:15;7.97;;;5.47;;
6626;SDS011;3349;49.830;8.748;2023-02-17T10:56:50;6.65;;;5.18;;
6626;SDS011;3349;49.830;8.748;2023-02-17T10:59:19;5.38;;;4.88;;
6626;SDS011;3349;49.830;8.748;2023-02-17T11:01:51;5.55;;;4.95;;
6626;SDS011;3349;49.830;8.748;2023-02-17T11:04:22;6.95;;;4.68;;
6626;SDS011;3349;49.830;8.748;2023-02-17T11:06:49;6.55;;;4.72;;
6626;SDS011;3349;49.830;8.748;2023-02-17T11:09:21;5.20;;;4.25;;
6626;SDS011;3349;49.830;8.748;2023-02-17T11:11:56;5.32;;;4.50;;
6626;SDS011;3349;49.830;8.748;2023-02-17T11:14:25;6.60;;;4.05;;
6626;SDS011;3349;49.830;8.748;2023-02-17T11:16:55;5.82;;;4.78;;
6626;SDS011;3349;49.830;8.748;2023-02-17T11:19:25;5.65;;;4.57;;
6626;SDS011;3349;49.830;8.748;2023-02-17T11:21:53;3.95;;;3.50;;
6626;SDS011;3349;49.830;8.748;2023-02-17T11:24:24;4.55;;;4.05;;
6626;SDS011;3349;49.830;8.748;2023-02-17T11:26:55;5.13;;;4.35;;
6626;SDS011;3349;49.830;8.748;2023-02-17T11:29:23;6.40;;;4.63;;
6626;SDS011;3349;49.830;8.748;2023-02-17T11:31:53;4.68;;;4.03;;
6626;SDS011;3349;49.830;8.748;2023-02-17T11:34:24;4.88;;;4.38;;
6626;SDS011;3349;49.830;8.748;2023-02-17T11:36:57;5.53;;;4.20;;
6626;SDS011;3349;49.830;8.748;2023-02-17T11:39:27;6.15;;;4.25;;
6626;SDS011;3349;49.830;8.748;2023-02-17T11:41:54;5.28;;;3.80;;
6626;SDS011;3349;49.830;8.748;2023-02-17T11:44:22;5.35;;;3.95;;
6626;SDS011;3349;49.830;8.748;2023-02-17T11:46:51;5.80;;;3.92;;
6626;SDS011;3349;49.830;8.748;2023-02-17T11:49:46;4.72;;;4.15;;
6626;SDS011;3349;49.830;8.748;2023-02-17T11:52:27;5.68;;;4.00;;
6626;SDS011;3349;49.830;8.748;2023-02-17T11:55:12;5.30;;;4.30;;
6626;SDS011;3349;49.830;8.748;2023-02-17T11:57:44;4.20;;;3.80;;
6626;SDS011;3349;49.830;8.748;2023-02-17T12:00:24;5.35;;;4.20;;
6626;SDS011;3349;49.830;8.748;2023-02-17T12:06:13;4.20;;;3.70;;
6626;SDS011;3349;49.830;8.748;2023-02-17T12:08:47;5.72;;;4.60;;
6626;SDS011;3349;49.830;8.748;2023-02-17T12:11:25;5.90;;;5.30;;
6626;SDS011;3349;49.830;8.748;2023-02-17T12:13:59;6.95;;;4.53;;
6626;SDS011;3349;49.830;8.748;2023-02-17T12:16:42;5.03;;;4.43;;
6626;SDS011;3349;49.830;8.748;2023-02-17T12:19:19;4.90;;;4.10;;
6626;SDS011;3349;49.830;8.748;2023-02-17T12:21:58;5.05;;;4.13;;
6626;SDS011;3349;49.830;8.748;2023-02-17T12:24:43;4.80;;;4.25;;
6626;SDS011;3349;49.830;8.748;2023-02-17T12:27:41;4.72;;;3.90;;
6626;SDS011;3349;49.830;8.748;2023-02-17T12:30:17;4.32;;;3.78;;
6626;SDS011;3349;49.830;8.748;2023-02-17T12:32:55;4.82;;;3.55;;
6626;SDS011;3349;49.830;8.748;2023-02-17T12:35:33;4.70;;;3.53;;
6626;SDS011;3349;49.830;8.748;2023-02-17T12:38:09;3.85;;;3.30;;
6626;SDS011;3349;49.830;8.748;2023-02-17T12:40:38;3.20;;;2.90;;
6626;SDS011;3349;49.830;8.748;2023-02-17T12:43:15;3.42;;;3.10;;
6626;SDS011;3349;49.830;8.748;2023-02-17T12:45:48;5.15;;;3.20;;
6626;SDS011;3349;49.830;8.748;2023-02-17T12:48:20;3.30;;;3.00;;
6626;SDS011;3349;49.830;8.748;2023-02-17T12:50:51;3.88;;;3.17;;
6626;SDS011;3349;49.830;8.748;2023-02-17T12:53:25;3.88;;;3.30;;
6626;SDS011;3349;49.830;8.748;2023-02-17T12:56:19;3.00;;;2.67;;
6626;SDS011;3349;49.830;8.748;2023-02-17T12:59:09;3.20;;;2.90;;
6626;SDS011;3349;49.830;8.748;2023-02-17T13:01:41;4.63;;;3.10;;
6626;SDS011;3349;49.830;8.748;2023-02-17T13:04:16;4.03;;;3.47;;
6626;SDS011;3349;49.830;8.748;2023-02-17T13:06:45;4.47;;;3.08;;
6626;SDS011;3349;49.830;8.748;2023-02-17T13:09:19;4.18;;;3.40;;
6626;SDS011;3349;49.830;8.748;2023-02-17T13:11:53;3.35;;;2.60;;
6626;SDS011;3349;49.830;8.748;2023-02-17T13:14:38;3.55;;;2.97;;
6626;SDS011;3349;49.830;8.748;2023-02-17T13:17:20;3.45;;;3.03;;
6626;SDS011;3349;49.830;8.748;2023-02-17T13:20:04;3.70;;;3.03;;
6626;SDS011;3349;49.830;8.748;2023-02-17T13:22:48;3.50;;;3.20;;
6626;SDS011;3349;49.830;8.748;2023-02-17T13:25:25;3.47;;;3.00;;
6626;SDS011;3349;49.830;8.748;2023-02-17T13:27:55;4.88;;;3.72;;
6626;SDS011;3349;49.830;8.748;2023-02-17T13:30:29;3.55;;;3.25;;
6626;SDS011;3349;49.830;8.748;2023-02-17T13:33:04;3.17;;;2.88;;
6626;SDS011;3349;49.830;8.748;2023-02-17T13:35:33;4.88;;;3.80;;
6626;SDS011;3349;49.830;8.748;2023-02-17T13:38:01;3.92;;;3.63;;
6626;SDS011;3349;49.830;8.748;2023-02-17T13:40:36;4.70;;;3.70;;
6626;SDS011;3349;49.830;8.748;2023-02-17T13:43:08;4.28;;;3.78;;
6626;SDS011;3349;49.830;8.748;2023-02-17T13:45:41;4.55;;;4.15;;
6626;SDS011;3349;49.830;8.748;2023-02-17T13:48:11;5.00;;;4.43;;
6626;SDS011;3349;49.830;8.748;2023-02-17T13:50:44;4.18;;;3.78;;
6626;SDS011;3349;49.830;8.748;2023-02-17T13:53:19;4.13;;;3.72;;
6626;SDS011;3349;49.830;8.748;2023-02-17T13:55:55;4.05;;;3.63;;
6626;SDS011;3349;49.830;8.748;2023-02-17T13:58:28;3.97;;;3.60;;
6626;SDS011;3349;49.830;8.748;2023-02-17T14:00:57;4.35;;;3.88;;
6626;SDS011;3349;49.830;8.748;2023-02-17T14:03:26;4.70;;;4.30;;
6626;SDS011;3349;49.830;8.748;2023-02-17T14:05:55;4.80;;;3.92;;
6626;SDS011;3349;49.830;8.748;2023-02-17T14:08:28;4.80;;;4.30;;
6626;SDS011;3349;49.830;8.748;2023-02-17T14:11:02;4.60;;;4.00;;
6626;SDS011;3349;49.830;8.748;2023-02-17T14:13:33;4.25;;;3.85;;
6626;SDS011;3349;49.830;8.748;2023-02-17T14:16:01;5.13;;;4.13;;
6626;SDS011;3349;49.830;8.748;2023-02-17T14:18:31;4.50;;;4.10;;
6626;SDS011;3349;49.830;8.748;2023-02-17T14:21:00;5.53;;;4.10;;
6626;SDS011;3349;49.830;8.748;2023-02-17T14:23:38;4.60;;;3.80;;
6626;SDS011;3349;49.830;8.748;2023-02-17T14:26:11;4.20;;;3.80;;
6626;SDS011;3349;49.830;8.748;2023-02-17T14:28:39;4.25;;;3.85;;
6626;SDS011;3349;49.830;8.748;2023-02-17T14:31:08;5.05;;;4.15;;
6626;SDS011;3349;49.830;8.748;2023-02-17T14:33:36;5.70;;;4.13;;
6626;SDS011;3349;49.830;8.748;2023-02-17T14:36:03;5.22;;;4.55;;
6626;SDS011;3349;49.830;8.748;2023-02-17T14:38:33;4.38;;;3.97;;
6626;SDS011;3349;49.830;8.748;2023-02-17T14:41:01;6.60;;;3.92;;
6626;SDS011;3349;49.830;8.748;2023-02-17T14:43:29;4.13;;;3.72;;
6626;SDS011;3349;49.830;8.748;2023-02-17T14:45:57;4.32;;;3.92;;
6626;SDS011;3349;49.830;8.748;2023-02-17T14:48:25;5.07;;;4.28;;
6626;SDS011;3349;49.830;8.748;2023-02-17T14:50:52;5.28;;;4.30;;
6626;SDS011;3349;49.830;8.748;2023-02-17T14:53:20;4.43;;;4.03;;
6626;SDS011;3349;49.830;8.748;2023-02-17T14:55:50;5.20;;;4.20;;
6626;SDS011;3349;49.830;8.748;2023-02-17T14:58:23;5.28;;;4.78;;
6626;SDS011;3349;49.830;8.748;2023-02-17T15:00:51;5.72;;;4.55;;
6626;SDS011;3349;49.830;8.748;2023-02-17T15:03:17;4.93;;;4.38;;
6626;SDS011;3349;49.830;8.748;2023-02-17T15:05:45;5.15;;;4.07;;
6626;SDS011;3349;49.830;8.748;2023-02-17T15:08:13;6.53;;;5.38;;
6626;SDS011;3349;49.830;8.748;2023-02-17T15:10:42;5.90;;;5.15;;
6626;SDS011;3349;49.830;8.748;2023-02-17T15:13:11;8.93;;;5.28;;
6626;SDS011;3349;49.830;8.748;2023-02-17T15:15:40;6.57;;;5.22;;
6626;SDS011;3349;49.830;8.748;2023-02-17T15:18:08;6.28;;;5.50;;
6626;SDS011;3349;49.830;8.748;2023-02-17T15:20:36;8.13;;;6.75;;
6626;SDS011;3349;49.830;8.748;2023-02-17T15:23:05;5.80;;;5.20;;
6626;SDS011;3349;49.830;8.748;2023-02-17T15:25:37;5.97;;;4.90;;
6626;SDS011;3349;49.830;8.748;2023-02-17T15:28:04;6.55;;;5.80;;
6626;SDS011;3349;49.830;8.748;2023-02-17T15:30:31;5.93;;;5.20;;
6626;SDS011;3349;49.830;8.748;2023-02-17T15:32:57;6.03;;;5.43;;
6626;SDS011;3349;49.830;8.748;2023-02-17T15:35:26;6.45;;;5.50;;
6626;SDS011;3349;49.830;8.748;2023-02-17T15:37:53;5.13;;;4.63;;